createdAt,value
2022-12-09T00:01:17.276Z,68.43
2022-12-09T00:03:44.069Z,60.95
2022-12-09T00:06:15.517Z,56.55
2022-12-09T00:08:42.352Z,57.90
2022-12-09T00:11:09.344Z,59.03
2022-12-09T00:13:36.220Z,62.60
2022-12-09T00:16:14.387Z,62.33
2022-12-09T00:18:41.954Z,60.85
2022-12-09T00:21:22.659Z,52.85
2022-12-09T00:23:50.180Z,58.50
2022-12-09T00:26:18.801Z,59.75
2022-12-09T00:28:45.486Z,61.85
2022-12-09T00:31:21.596Z,57.97
2022-12-09T00:33:48.105Z,60.40
2022-12-09T00:36:17.457Z,63.67
2022-12-09T00:38:44.182Z,60.70
2022-12-09T00:41:11.656Z,63.85
2022-12-09T00:43:38.181Z,68.05
2022-12-09T00:46:05.011Z,56.78
2022-12-09T00:48:34.289Z,62.92
2022-12-09T00:51:01.749Z,59.60
2022-12-09T00:53:28.563Z,59.15
2022-12-09T00:55:55.100Z,69.00
2022-12-09T00:58:21.760Z,58.22
2022-12-09T01:00:48.261Z,61.78
2022-12-09T01:03:16.912Z,61.63
2022-12-09T01:05:43.781Z,58.33
2022-12-09T01:08:11.654Z,61.80
2022-12-09T01:10:39.845Z,62.67
2022-12-09T01:13:06.723Z,65.85
2022-12-09T01:15:33.631Z,63.30
2022-12-09T01:18:00.243Z,66.72
2022-12-09T01:20:26.699Z,57.17
2022-12-09T01:22:53.205Z,57.35
2022-12-09T01:25:19.712Z,61.05
2022-12-09T01:27:46.318Z,56.42
2022-12-09T01:30:13.995Z,59.15
2022-12-09T01:32:41.611Z,64.82
2022-12-09T01:35:08.797Z,56.85
2022-12-09T01:37:36.971Z,58.60
2022-12-09T01:40:09.481Z,62.72
2022-12-09T01:42:36.170Z,69.25
2022-12-09T01:45:25.010Z,63.28
2022-12-09T01:47:56.483Z,61.03
2022-12-09T01:52:50.573Z,59.22
2022-12-09T01:55:17.773Z,59.10
2022-12-09T01:57:46.081Z,54.42
2022-12-09T02:00:13.815Z,53.33
2022-12-09T02:02:42.595Z,53.70
2022-12-09T02:05:10.562Z,57.30
2022-12-09T02:07:37.386Z,56.55
2022-12-09T02:10:08.870Z,58.80
2022-12-09T02:12:46.631Z,54.35
2022-12-09T02:15:16.840Z,52.42
2022-12-09T02:17:53.297Z,57.63
2022-12-09T02:20:30.549Z,53.72
2022-12-09T02:23:11.393Z,57.33
2022-12-09T02:25:37.793Z,53.40
2022-12-09T02:28:35.072Z,57.58
2022-12-09T02:31:23.712Z,57.13
2022-12-09T02:33:57.488Z,54.10
2022-12-09T02:36:29.052Z,51.97
2022-12-09T02:41:27.969Z,59.30
2022-12-09T02:44:02.633Z,50.00
2022-12-09T02:46:30.213Z,55.35
2022-12-09T02:48:59.291Z,53.03
2022-12-09T02:51:30.910Z,52.58
2022-12-09T02:56:27.921Z,53.85
2022-12-09T02:58:54.653Z,54.63
2022-12-09T03:01:23.151Z,54.85
2022-12-09T03:03:53.430Z,54.80
2022-12-09T03:06:21.270Z,50.10
2022-12-09T03:08:56.328Z,56.70
2022-12-09T03:11:24.967Z,60.88
2022-12-09T03:14:03.559Z,57.55
2022-12-09T03:16:34.941Z,59.85
2022-12-09T03:19:12.180Z,54.50
2022-12-09T03:21:44.210Z,54.78
2022-12-09T03:24:15.384Z,51.40
2022-12-09T03:26:43.207Z,59.22
2022-12-09T03:29:24.992Z,54.53
2022-12-09T03:31:54.999Z,63.17
2022-12-09T03:34:26.281Z,57.05
2022-12-09T03:36:53.871Z,65.03
2022-12-09T03:39:27.936Z,55.88
2022-12-09T03:42:01.655Z,53.40
2022-12-09T03:44:46.359Z,55.30
2022-12-09T03:47:13.089Z,52.38
2022-12-09T03:49:40.386Z,55.30
2022-12-09T03:52:31.463Z,57.63
2022-12-09T03:55:04.413Z,57.05
2022-12-09T03:57:34.659Z,57.25
2022-12-09T04:00:02.317Z,60.38
2022-12-09T04:02:29.390Z,53.53
2022-12-09T04:04:56.213Z,55.83
2022-12-09T04:07:22.996Z,59.00
2022-12-09T04:09:49.874Z,56.15
2022-12-09T04:12:16.468Z,58.47
2022-12-09T04:14:43.231Z,59.47
2022-12-09T04:17:11.229Z,59.60
2022-12-09T04:19:38.199Z,55.97
2022-12-09T04:22:04.819Z,58.85
2022-12-09T04:24:31.335Z,62.58
2022-12-09T04:26:58.069Z,58.47
2022-12-09T04:29:24.514Z,59.58
2022-12-09T04:31:51.147Z,50.78
2022-12-09T04:34:18.053Z,47.28
2022-12-09T04:36:44.547Z,54.83
2022-12-09T04:39:11.309Z,55.60
2022-12-09T04:41:38.189Z,54.67
2022-12-09T04:44:05.563Z,50.55
2022-12-09T04:46:32.561Z,50.22
2022-12-09T04:48:59.014Z,47.38
2022-12-09T04:51:25.463Z,53.83
2022-12-09T04:53:51.989Z,47.97
2022-12-09T04:56:20.342Z,48.10
2022-12-09T04:58:49.167Z,54.78
2022-12-09T05:01:22.594Z,51.72
2022-12-09T05:03:54.130Z,51.63
2022-12-09T05:06:22.105Z,48.72
2022-12-09T05:08:49.235Z,53.45
2022-12-09T05:11:17.855Z,61.47
2022-12-09T05:13:44.818Z,57.00
2022-12-09T05:16:16.954Z,60.20
2022-12-09T05:18:45.142Z,56.50
2022-12-09T05:21:15.147Z,49.80
2022-12-09T05:23:42.541Z,52.88
2022-12-09T05:26:12.676Z,56.53
2022-12-09T05:28:39.559Z,58.65
2022-12-09T05:31:09.348Z,53.63
2022-12-09T05:33:36.222Z,53.38
2022-12-09T05:36:03.730Z,55.13
2022-12-09T05:38:30.676Z,52.78
2022-12-09T05:41:00.735Z,51.30
2022-12-09T05:43:27.672Z,53.17
2022-12-09T05:45:54.296Z,58.67
2022-12-09T05:48:21.786Z,55.00
2022-12-09T05:51:03.469Z,54.33
2022-12-09T05:55:57.592Z,53.85
2022-12-09T05:58:24.610Z,52.17
2022-12-09T06:00:51.513Z,52.63
2022-12-09T06:03:18.284Z,51.60
2022-12-09T06:05:45.280Z,57.47
2022-12-09T06:08:12.694Z,53.58
2022-12-09T06:10:40.658Z,59.33
2022-12-09T06:13:08.647Z,55.38
2022-12-09T06:15:36.047Z,53.65
2022-12-09T06:18:03.276Z,51.97
2022-12-09T06:20:30.570Z,52.85
2022-12-09T06:22:57.572Z,57.13
2022-12-09T06:25:24.175Z,60.65
2022-12-09T06:27:53.908Z,65.28
2022-12-09T06:30:21.021Z,60.13
2022-12-09T06:32:47.756Z,48.47
2022-12-09T06:35:15.429Z,61.13
2022-12-09T06:37:42.441Z,55.97
2022-12-09T06:40:10.139Z,56.30
2022-12-09T06:42:37.107Z,51.22
2022-12-09T06:45:04.780Z,59.55
2022-12-09T06:47:31.545Z,50.92
2022-12-09T06:50:06.701Z,45.15
2022-12-09T06:52:34.314Z,44.63
2022-12-09T06:55:01.446Z,48.08
2022-12-09T06:57:28.152Z,51.00
2022-12-09T06:59:55.030Z,52.92
2022-12-09T07:02:23.034Z,50.47
2022-12-09T07:04:54.533Z,47.40
2022-12-09T07:07:21.840Z,48.67
2022-12-09T07:09:48.884Z,52.60
2022-12-09T07:12:16.034Z,42.70
2022-12-09T07:14:42.557Z,41.65
2022-12-09T07:17:16.614Z,49.53
2022-12-09T07:19:43.375Z,55.95
2022-12-09T07:22:10.271Z,48.22
2022-12-09T07:24:38.349Z,47.10
2022-12-09T07:27:10.729Z,40.28
2022-12-09T07:29:39.720Z,39.78
2022-12-09T07:32:09.255Z,41.85
2022-12-09T07:34:37.218Z,41.45
2022-12-09T07:37:03.986Z,43.38
2022-12-09T07:39:31.024Z,49.60
2022-12-09T07:41:58.393Z,42.15
2022-12-09T07:44:28.306Z,43.15
2022-12-09T07:46:55.874Z,38.33
2022-12-09T07:49:22.653Z,40.13
2022-12-09T07:51:49.660Z,31.55
2022-12-09T07:54:19.039Z,37.08
2022-12-09T07:56:46.294Z,33.63
2022-12-09T07:59:14.626Z,32.97
2022-12-09T08:01:41.523Z,36.80
2022-12-09T08:04:08.285Z,34.50
2022-12-09T08:06:35.829Z,39.00
2022-12-09T08:09:06.106Z,37.88
2022-12-09T08:11:34.281Z,39.50
2022-12-09T08:14:08.951Z,36.38
2022-12-09T08:16:38.444Z,35.65
2022-12-09T08:19:05.368Z,45.17
2022-12-09T08:21:33.586Z,39.67
2022-12-09T08:24:02.535Z,39.35
2022-12-09T08:26:31.449Z,31.05
2022-12-09T08:28:59.095Z,31.30
2022-12-09T08:31:27.501Z,34.83
2022-12-09T08:33:54.930Z,32.75
2022-12-09T08:36:25.529Z,32.17
2022-12-09T08:38:52.984Z,24.27
2022-12-09T08:41:22.945Z,21.50
2022-12-09T08:43:49.971Z,24.95
2022-12-09T08:46:17.041Z,17.90
2022-12-09T08:48:43.722Z,19.77
2022-12-09T08:51:12.245Z,22.55
2022-12-09T08:53:39.791Z,18.20
2022-12-09T08:56:14.778Z,21.75
2022-12-09T08:58:42.700Z,19.52
2022-12-09T09:01:18.032Z,22.75
2022-12-09T09:03:45.931Z,23.40
2022-12-09T09:06:14.301Z,25.35
2022-12-09T09:08:41.697Z,22.15
2022-12-09T09:11:10.920Z,29.15
2022-12-09T09:13:40.818Z,21.65
2022-12-09T09:16:13.312Z,19.40
2022-12-09T09:18:40.978Z,16.42
2022-12-09T09:21:09.799Z,20.20
2022-12-09T09:23:36.747Z,21.33
2022-12-09T09:26:04.151Z,21.73
2022-12-09T09:28:31.838Z,18.30
2022-12-09T09:31:04.247Z,19.67
2022-12-09T09:33:31.018Z,23.80
2022-12-09T09:36:06.873Z,19.25
2022-12-09T09:38:36.734Z,15.30
2022-12-09T09:41:16.669Z,11.73
2022-12-09T09:43:43.885Z,17.35
2022-12-09T09:46:20.858Z,16.30
2022-12-09T09:48:48.571Z,17.63
2022-12-09T09:51:20.570Z,19.30
2022-12-09T09:53:50.535Z,22.38
2022-12-09T09:56:26.929Z,22.45
2022-12-09T09:59:11.946Z,19.02
2022-12-09T10:01:39.757Z,18.73
2022-12-09T10:04:35.594Z,17.05
2022-12-09T10:07:07.953Z,19.38
2022-12-09T10:09:47.014Z,17.08
2022-12-09T10:12:25.827Z,15.65
2022-12-09T10:15:08.814Z,14.95
2022-12-09T10:17:50.132Z,15.68
2022-12-09T10:20:24.458Z,14.88
2022-12-09T10:23:02.241Z,15.52
2022-12-09T10:25:35.602Z,16.52
2022-12-09T10:28:14.197Z,14.60
2022-12-09T10:30:44.676Z,17.08
2022-12-09T10:33:16.690Z,22.77
2022-12-09T10:38:18.973Z,17.42
2022-12-09T10:40:57.067Z,16.20
2022-12-09T10:43:37.578Z,17.08
2022-12-09T10:46:20.499Z,12.20
2022-12-09T10:48:48.549Z,13.10
2022-12-09T10:51:22.225Z,13.38
2022-12-09T10:53:55.222Z,12.52
2022-12-09T10:56:33.477Z,12.65
2022-12-09T10:59:17.905Z,11.77
2022-12-09T11:01:56.717Z,14.45
2022-12-09T11:04:23.988Z,17.77
2022-12-09T11:06:57.410Z,17.98
2022-12-09T11:09:34.645Z,14.68
2022-12-09T11:12:04.242Z,12.65
2022-12-09T11:14:42.102Z,10.93
2022-12-09T11:17:15.753Z,9.82
2022-12-09T11:19:43.752Z,11.43
2022-12-09T11:22:28.359Z,11.52
2022-12-09T11:25:15.809Z,28.95
2022-12-09T11:27:55.538Z,18.55
2022-12-09T11:30:35.035Z,13.10
2022-12-09T11:33:14.353Z,12.70
2022-12-09T11:35:44.201Z,12.25
2022-12-09T11:38:29.619Z,16.05
2022-12-09T11:41:13.411Z,14.82
2022-12-09T11:43:48.668Z,14.77
2022-12-09T11:46:17.991Z,12.73
2022-12-09T11:48:53.755Z,19.67
2022-12-09T11:51:30.179Z,19.48
2022-12-09T11:54:13.204Z,24.75
2022-12-09T11:56:40.985Z,22.85
2022-12-09T11:59:23.975Z,21.85
2022-12-09T12:02:05.935Z,14.57
2022-12-09T12:04:55.987Z,17.65
2022-12-09T12:07:35.363Z,19.38
2022-12-09T12:10:03.262Z,15.25
2022-12-09T12:12:41.205Z,15.23
2022-12-09T12:15:16.483Z,17.65
2022-12-09T12:17:49.607Z,16.63
2022-12-09T12:20:16.580Z,13.35
2022-12-09T12:22:56.543Z,13.98
2022-12-09T12:25:50.627Z,14.45
2022-12-09T12:28:29.237Z,14.32
2022-12-09T12:31:12.234Z,14.80
2022-12-09T12:34:24.168Z,19.77
2022-12-09T12:37:18.918Z,14.57
2022-12-09T12:39:57.930Z,14.00
2022-12-09T12:43:03.127Z,11.88
2022-12-09T12:45:57.156Z,13.65
2022-12-09T12:48:53.046Z,13.48
2022-12-09T12:51:25.641Z,11.20
2022-12-09T12:54:20.246Z,12.55
2022-12-09T12:56:58.676Z,10.23
2022-12-09T12:59:57.151Z,19.63
2022-12-09T13:02:42.782Z,11.80
2022-12-09T13:05:15.688Z,13.23
2022-12-09T13:07:52.580Z,10.68
2022-12-09T13:10:36.013Z,11.65
2022-12-09T13:13:05.966Z,15.27
2022-12-09T13:15:43.485Z,12.90
2022-12-09T13:18:19.309Z,10.20
2022-12-09T13:20:50.244Z,12.93
2022-12-09T13:23:46.175Z,8.82
2022-12-09T13:26:33.182Z,8.65
2022-12-09T13:29:15.477Z,10.15
2022-12-09T13:32:15.681Z,12.98
2022-12-09T13:34:46.917Z,20.83
2022-12-09T13:37:32.090Z,15.43
2022-12-09T13:39:58.802Z,14.43
2022-12-09T13:42:47.003Z,8.95
2022-12-09T13:45:20.032Z,12.77
2022-12-09T13:47:47.474Z,10.95
2022-12-09T13:50:39.431Z,10.52
2022-12-09T13:53:05.833Z,11.98
2022-12-09T13:55:38.751Z,14.95
2022-12-09T13:58:43.863Z,11.40
2022-12-09T14:01:13.395Z,12.23
2022-12-09T14:04:06.545Z,14.40
2022-12-09T14:06:45.293Z,11.80
2022-12-09T14:09:33.708Z,11.63
2022-12-09T14:12:03.344Z,12.38
2022-12-09T14:14:29.718Z,14.32
2022-12-09T14:17:16.370Z,12.80
2022-12-09T14:19:42.899Z,14.75
2022-12-09T14:22:21.647Z,15.00
2022-12-09T14:24:49.853Z,11.95
2022-12-09T14:27:20.686Z,12.02
2022-12-09T14:29:52.026Z,12.23
2022-12-09T14:32:50.041Z,13.48
2022-12-09T14:35:41.817Z,11.80
2022-12-09T14:40:59.350Z,16.17
2022-12-09T14:43:50.648Z,16.65
2022-12-09T14:46:28.519Z,17.13
2022-12-09T14:49:03.212Z,23.85
2022-12-09T14:51:50.007Z,26.75
2022-12-09T14:54:22.042Z,32.53
2022-12-09T14:56:51.835Z,27.23
2022-12-09T14:59:23.634Z,24.10
2022-12-09T15:01:59.292Z,25.77
2022-12-09T15:04:33.471Z,17.65
2022-12-09T15:07:08.443Z,16.52
2022-12-09T15:09:35.225Z,17.90
2022-12-09T15:12:07.017Z,15.68
2022-12-09T15:14:33.523Z,19.92
2022-12-09T15:17:00.060Z,17.52
2022-12-09T15:22:23.723Z,29.42
2022-12-09T15:24:51.713Z,18.42
2022-12-09T15:27:21.314Z,17.80
2022-12-09T15:29:48.433Z,21.83
2022-12-09T15:32:28.365Z,17.60
2022-12-09T15:34:55.031Z,15.82
2022-12-09T15:37:29.042Z,15.15
2022-12-09T15:40:02.657Z,15.65
2022-12-09T15:42:33.519Z,16.27
2022-12-09T15:45:21.409Z,19.13
2022-12-09T15:47:55.295Z,19.20
2022-12-09T15:50:24.175Z,19.05
2022-12-09T15:53:15.109Z,20.27
2022-12-09T15:55:50.502Z,22.80
2022-12-09T15:58:25.600Z,21.15
2022-12-09T16:00:53.721Z,27.35
2022-12-09T16:03:24.345Z,27.95
2022-12-09T16:05:56.731Z,30.67
2022-12-09T16:08:30.460Z,27.17
2022-12-09T16:10:58.484Z,34.47
2022-12-09T16:13:26.019Z,36.50
2022-12-09T16:15:58.061Z,33.85
2022-12-09T16:18:26.099Z,41.80
2022-12-09T16:21:20.312Z,49.50
2022-12-09T16:23:50.825Z,56.22
2022-12-09T16:26:24.994Z,49.28
2022-12-09T16:29:00.828Z,38.88
2022-12-09T16:31:27.949Z,47.92
2022-12-09T16:33:54.837Z,54.58
2022-12-09T16:36:29.307Z,41.70
2022-12-09T16:39:08.037Z,55.28
2022-12-09T16:41:52.574Z,40.90
2022-12-09T16:44:38.356Z,38.45
2022-12-09T16:47:12.382Z,35.95
2022-12-09T16:49:40.097Z,35.92
2022-12-09T16:52:11.373Z,37.85
2022-12-09T16:54:38.304Z,38.75
2022-12-09T16:57:04.752Z,36.78
2022-12-09T16:59:37.608Z,50.22
2022-12-09T17:02:19.912Z,38.40
2022-12-09T17:04:47.928Z,39.83
2022-12-09T17:07:14.436Z,48.30
2022-12-09T17:09:40.858Z,32.58
2022-12-09T17:12:07.575Z,51.38
2022-12-09T17:14:33.973Z,36.20
2022-12-09T17:17:01.025Z,29.05
2022-12-09T17:19:27.452Z,39.88
2022-12-09T17:21:53.967Z,33.47
2022-12-09T17:24:20.847Z,34.92
2022-12-09T17:26:47.259Z,33.42
2022-12-09T17:29:13.783Z,34.65
2022-12-09T17:31:40.278Z,35.92
2022-12-09T17:34:06.768Z,31.30
2022-12-09T17:36:33.207Z,35.05
2022-12-09T17:39:03.359Z,30.90
2022-12-09T17:41:29.941Z,33.40
2022-12-09T17:43:57.806Z,28.58
2022-12-09T17:46:24.616Z,26.50
2022-12-09T17:48:51.176Z,28.30
2022-12-09T17:51:17.935Z,28.88
2022-12-09T17:53:45.652Z,34.33
2022-12-09T17:56:15.098Z,30.35
2022-12-09T17:58:42.316Z,28.98
2022-12-09T18:01:20.656Z,33.15
2022-12-09T18:03:56.584Z,29.05
2022-12-09T18:06:25.624Z,31.55
2022-12-09T18:08:52.806Z,39.58
2022-12-09T18:11:19.260Z,43.45
2022-12-09T18:13:46.629Z,40.50
2022-12-09T18:16:13.888Z,35.25
2022-12-09T18:18:41.555Z,41.65
2022-12-09T18:21:15.091Z,42.97
2022-12-09T18:23:42.393Z,37.50
2022-12-09T18:26:10.896Z,45.88
2022-12-09T18:28:37.824Z,39.90
2022-12-09T18:31:09.106Z,45.85
2022-12-09T18:33:37.637Z,40.15
2022-12-09T18:36:15.536Z,48.17
2022-12-09T18:38:42.667Z,46.70
2022-12-09T18:41:13.926Z,50.30
2022-12-09T18:43:42.812Z,45.60
2022-12-09T18:46:21.381Z,50.65
2022-12-09T18:49:10.038Z,45.97
2022-12-09T18:51:37.167Z,53.90
2022-12-09T18:54:04.384Z,46.45
2022-12-09T18:56:31.294Z,42.53
2022-12-09T18:59:06.336Z,55.53
2022-12-09T19:01:34.203Z,51.22
2022-12-09T19:04:02.680Z,48.03
2022-12-09T19:06:32.758Z,42.92
2022-12-09T19:09:02.257Z,49.25
2022-12-09T19:11:31.675Z,45.85
2022-12-09T19:13:58.737Z,48.45
2022-12-09T19:16:26.845Z,48.67
2022-12-09T19:18:53.795Z,49.13
2022-12-09T19:21:22.099Z,35.03
2022-12-09T19:23:49.239Z,38.92
2022-12-09T19:26:20.322Z,36.42
2022-12-09T19:28:55.338Z,34.50
2022-12-09T19:31:35.930Z,36.10
2022-12-09T19:34:05.879Z,32.58
2022-12-09T19:36:34.190Z,31.10
2022-12-09T19:39:02.171Z,31.20
2022-12-09T19:41:28.668Z,32.70
2022-12-09T19:43:56.605Z,29.73
2022-12-09T19:46:23.494Z,25.90
2022-12-09T19:48:50.003Z,32.47
2022-12-09T19:51:18.233Z,33.92
2022-12-09T19:53:45.151Z,30.30
2022-12-09T19:56:14.943Z,27.13
2022-12-09T19:58:42.721Z,26.58
2022-12-09T20:01:14.065Z,31.15
2022-12-09T20:03:42.143Z,27.42
2022-12-09T20:06:10.417Z,28.33
2022-12-09T20:08:36.949Z,24.40
2022-12-09T20:11:05.302Z,26.70
2022-12-09T20:13:32.306Z,29.30
2022-12-09T20:16:03.829Z,23.55
2022-12-09T20:21:01.367Z,27.48
2022-12-09T20:23:28.206Z,29.85
2022-12-09T20:25:54.742Z,24.52
2022-12-09T20:28:21.167Z,25.23
2022-12-09T20:30:47.688Z,30.88
2022-12-09T20:33:14.127Z,26.00
2022-12-09T20:35:40.553Z,26.08
2022-12-09T20:38:06.976Z,26.95
2022-12-09T20:40:40.512Z,24.20
2022-12-09T20:43:07.275Z,24.20
2022-12-09T20:45:33.699Z,26.40
2022-12-09T20:48:00.125Z,26.65
2022-12-09T20:50:26.547Z,30.05
2022-12-09T20:52:52.993Z,23.90
2022-12-09T20:55:21.908Z,29.42
2022-12-09T20:57:48.341Z,23.55
2022-12-09T21:00:15.055Z,24.20
2022-12-09T21:02:41.496Z,26.92
2022-12-09T21:05:08.528Z,20.77
2022-12-09T21:07:35.190Z,24.85
2022-12-09T21:10:01.645Z,25.80
2022-12-09T21:12:28.048Z,25.25
2022-12-09T21:14:54.594Z,29.23
2022-12-09T21:17:20.994Z,28.63
2022-12-09T21:19:47.404Z,26.98
2022-12-09T21:22:13.808Z,30.00
2022-12-09T21:24:40.250Z,24.73
2022-12-09T21:27:06.631Z,24.33
2022-12-09T21:29:33.067Z,26.38
2022-12-09T21:32:01.357Z,26.88
2022-12-09T21:34:28.032Z,24.55
2022-12-09T21:36:54.475Z,26.00
2022-12-09T21:39:21.024Z,28.15
2022-12-09T21:41:47.575Z,22.55
2022-12-09T21:44:17.517Z,31.08
2022-12-09T21:46:44.594Z,26.52
2022-12-09T21:49:11.841Z,26.08
2022-12-09T21:51:38.466Z,26.05
2022-12-09T21:54:04.997Z,29.23
2022-12-09T21:56:35.003Z,29.38
2022-12-09T21:59:02.966Z,24.10
2022-12-09T22:01:32.976Z,25.33
2022-12-09T22:04:01.427Z,31.38
2022-12-09T22:06:28.855Z,24.40
2022-12-09T22:08:57.296Z,25.85
2022-12-09T22:11:28.777Z,26.63
2022-12-09T22:14:00.651Z,27.92
2022-12-09T22:16:30.286Z,27.67
2022-12-09T22:18:58.861Z,29.20
2022-12-09T22:21:28.418Z,27.80
2022-12-09T22:24:00.185Z,29.05
2022-12-09T22:26:27.228Z,31.10
2022-12-09T22:28:54.683Z,25.17
2022-12-09T22:31:27.019Z,29.40
2022-12-09T22:33:56.175Z,25.48
2022-12-09T22:36:23.245Z,30.30
2022-12-09T22:38:50.649Z,29.42
2022-12-09T22:41:23.366Z,28.52
2022-12-09T22:43:50.723Z,32.00
2022-12-09T22:46:20.659Z,33.33
2022-12-09T22:48:48.367Z,27.70
2022-12-09T22:51:21.168Z,29.77
2022-12-09T22:53:49.672Z,29.00
2022-12-09T22:56:16.612Z,28.02
2022-12-09T22:58:43.260Z,32.53
2022-12-09T23:01:14.904Z,28.83
2022-12-09T23:03:41.749Z,30.52
2022-12-09T23:06:08.891Z,32.10
2022-12-09T23:08:37.553Z,30.67
2022-12-09T23:11:06.866Z,31.23
2022-12-09T23:13:40.735Z,35.42
2022-12-09T23:16:13.153Z,29.27
2022-12-09T23:18:40.005Z,28.02
2022-12-09T23:21:10.781Z,27.83
2022-12-09T23:23:37.668Z,31.35
2022-12-09T23:26:06.526Z,28.67
2022-12-09T23:28:37.289Z,27.63
2022-12-09T23:31:05.878Z,32.95
2022-12-09T23:33:34.350Z,32.67
2022-12-09T23:36:09.579Z,32.55
2022-12-09T23:38:36.330Z,28.10
2022-12-09T23:41:03.328Z,30.05
2022-12-09T23:43:31.275Z,29.65
2022-12-09T23:46:19.825Z,33.72
2022-12-09T23:48:48.081Z,33.85
2022-12-09T23:51:20.835Z,29.35
2022-12-09T23:53:49.203Z,30.25
2022-12-09T23:56:20.745Z,29.85
